^^

Nearby METAR Reports

 

EGAC - Belfast Harbour, United Kingdom
Distance from station: W 8mi, 13km
Updated: 12/12/2018 19:50
Overcast
Overcast
 Wind from SE
Wind: SE 15 mph , 24 km/h
Temperature: 9°C
Wind Chill: 6°C
Dew Point: 6°C
Humidity: 82%
Barometer: 1010 hPa
Clouds: Overcast
Visibility: 6 miles , 10 km
Cloud details: Partly cloudy 549 m
Overcast 701 m
2018/12/12 19:50 EGAC 121950Z AUTO 13013KT 9999 SCT018/// OVC023/// 09/06 Q1010
EGAA - Belfast/Aldergro, United Kingdom
Distance from station: W 22mi, 35km
Updated: 12/12/2018 19:50
Mostly cloudy
Mostly cloudy
 Wind from SE
Wind: SE 16 mph , 26 km/h, Gust: 28 mph , 44 km/h
Temperature: 8°C
Wind Chill: 4°C
Dew Point: 5°C
Humidity: 82%
Barometer: 1009 hPa
Clouds: Mostly cloudy
Visibility: 6 miles , 10 km
Cloud details: Mostly cloudy 488 m
2018/12/12 19:50 EGAA 121950Z 13014G24KT 9999 BKN016 08/05 Q1009
 
EGNS - Isle Of Man/Rona, United Kingdom
Distance from station: SE 57mi, 91km
Updated: 12/12/2018 19:20
Mostly cloudy
Mostly cloudy
 Wind from SE
Wind: SE 31 mph , 50 km/h
Temperature: 8°C
Wind Chill: 2°C
Dew Point: 4°C
Humidity: 76%
Barometer: 1013 hPa
Clouds: Mostly cloudy
Visibility: 6 miles , 10 km
Cloud details: Partly cloudy 610 m
Mostly cloudy 1280 m
2018/12/12 19:20 EGNS 121920Z 13027KT 9999 SCT020 BKN042 08/04 Q1013 NOSIG
EGPK - Prestwick(Civ/Na, United Kingdom
Distance from station: NE 74mi, 119km
Updated: 12/12/2018 19:50
Mostly cloudy
Mostly cloudy
 Wind from ESE
Wind: ESE 8 mph , 13 km/h
Temperature: 7°C
Wind Chill: 5°C
Dew Point: 3°C
Humidity: 76%
Barometer: 1015 hPa
Clouds: Mostly cloudy
Visibility: 6 miles , 10 km
Cloud details: Mostly cloudy 792 m
2018/12/12 19:50 EGPK 121950Z 12007KT 9999 BKN026 07/03 Q1015
 
EIDW - Dublin Airport, Ireland
Distance from station: SSW 87mi, 141km
Updated: 12/12/2018 19:30
Light rain, Showers, Mostly cloudy
Light rain, Showers, Mostly cloudy
 Wind from SSE
Wind: SSE 20 mph , 31 km/h, Gust: 32 mph , 52 km/h
Temperature: 8°C
Wind Chill: 3°C
Dew Point: 6°C
Humidity: 87%
Barometer: 1009 hPa
Summary: Light rain, Showers
Clouds: Mostly cloudy
Visibility: 6 miles , 10 km
Cloud details: Few Clouds 244 m
Mostly cloudy 366 m
2018/12/12 19:30 EIDW 121930Z 15017G28KT 110V170 9999 -SHRA FEW008 BKN012 08/06 Q1009 NOSIG
EGPF - Glasgow Airport, United Kingdom
Distance from station: NNE 98mi, 158km
Updated: 12/12/2018 19:50
Mostly cloudy
Mostly cloudy
 Wind from E
Wind: E 13 mph , 20 km/h
Temperature: 7°C
Wind Chill: 4°C
Dew Point: 3°C
Humidity: 76%
Barometer: 1016 hPa
Clouds: Mostly cloudy
Visibility: 6 miles , 10 km
Cloud details: Mostly cloudy 914 m
2018/12/12 19:50 EGPF 121950Z AUTO 09011KT 9999 BKN030 07/03 Q1016